CW7229 Weather Reports


time (UTC)temp
C
wind
direction
speed
KPH
gust
KPH
rain 1hr
cm
rain 24hr
cm
rain mn
cm
humidity
%
barometer
mb
20191015100113 22 6 6.4 8.0 0.00 0.00 0.00 24 1004.2
20191015093113 21 9 4.8 8.0 0.00 0.00 0.00 30 1004.2
20191015090113 20 11 4.8 6.4 0.00 0.00 0.00 37 1004.3
20191015080113 17 302 4.8 6.4 0.00 0.00 0.00 79 1004.4
20191015063113 12 3 0.0 0.0 0.00 0.00 0.00 79 1005.6
20191015053113 12 345 0.0 4.8 0.00 0.00 0.00 78 1004.6
20191015043113 12 313 0.0 0.0 0.00 0.00 0.00 76 1004.6
20191015033113 13 312 4.8 6.4 0.00 0.00 0.00 77 1005.6
20191015030112 13 319 4.8 6.4 0.00 0.00 0.00 75 1005.6
20191015023112 13 341 4.8 8.0 0.00 0.00 0.00 77 1005.5
20191015013112 13 294 4.8 6.4 0.00 0.00 0.00 79 1005.5
20191015010113 13 295 0.0 4.8 0.00 0.00 0.00 75 1006.5
20191015003112 13 293 3.2 4.8 0.00 0.00 0.00 74 1006.5
20191015000114 14 286 4.8 6.4 0.00 0.00 0.00 74 1006.5
20191014233112 15 318 0.0 6.4 0.00 0.00 0.00 74 1006.5
20191014230112 14 307 4.8 8.0 0.00 0.00 0.00 70 1007.5
20191014213113 15 308 0.0 6.4 0.00 0.00 0.00 63 1007.5
20191014210112 15 310 3.2 6.4 0.00 0.00 0.00 58 1008.5
20191014203112 15 293 0.0 0.0 0.00 0.00 0.00 54 1008.5
20191014200112 15 290 3.2 4.8 0.00 0.00 0.00 52 1008.5
20191014193112 16 277 0.0 0.0 0.00 0.00 0.00 50 1008.5
20191014173112 17 305 3.2 6.4 0.00 0.00 0.00 41 1009.4
20191014170132 18 274 1.6 8.0 0.00 0.00 0.00 38 1009.4
20191014150113 21 235 6.4 11.3 0.00 0.00 0.00 25 1009.3
20191014133112 22 312 6.4 12.9 0.00 0.00 0.00 22 1010.3
20191014113113 22 338 6.4 9.7 0.00 0.00 0.00 22 1012.3
20191014110111 21 203 6.4 9.7 0.00 0.00 0.00 22 1012.3